Time;durP1;ratioP1;P1;durP2;ratioP2;P2;SDS_P1;SDS_P2;PMS_P1;PMS_P2;Temp;Humidity;BMP_temperature;BMP_pressure;BME280_temperature;BME280_humidity;BME280_pressure;Samples;Min_cycle;Max_cycle;Signal;HPM_P1;HPM_P2
2024/01/17 00:00:52;;;;;;;2.40;1.57;;;22.70;49.90;;;;;;5034792;28;20442;-89
2024/01/17 00:03:19;;;;;;;2.50;1.60;;;22.70;49.90;;;;;;5035324;28;20466;-88
2024/01/17 00:05:46;;;;;;;3.33;1.50;;;22.70;50.00;;;;;;5034289;28;20496;-89
2024/01/17 00:08:13;;;;;;;2.60;1.70;;;22.70;50.60;;;;;;5034834;28;20438;-88
2024/01/17 00:10:41;;;;;;;1.90;1.20;;;22.70;50.00;;;;;;5034847;28;20466;-88
2024/01/17 00:13:08;;;;;;;2.87;1.93;;;22.70;50.00;;;;;;5034487;28;20470;-88
2024/01/17 00:15:35;;;;;;;1.83;1.30;;;22.70;50.00;;;;;;5034447;28;20542;-87
2024/01/17 00:18:01;;;;;;;1.90;1.30;;;22.70;50.00;;;;;;5034495;28;20446;-88
2024/01/17 00:20:28;;;;;;;1.90;1.47;;;22.70;50.60;;;;;;5034611;28;20451;-87
2024/01/17 00:22:55;;;;;;;2.07;1.47;;;22.70;50.00;;;;;;5034362;28;20467;-89
2024/01/17 00:25:22;;;;;;;2.17;1.50;;;22.70;50.00;;;;;;5034227;28;20500;-88
2024/01/17 00:27:50;;;;;;;3.90;1.50;;;22.70;49.90;;;;;;5034409;28;20496;-89
2024/01/17 00:30:17;;;;;;;2.23;1.53;;;22.70;49.90;;;;;;5034107;28;20441;-89
2024/01/17 00:32:44;;;;;;;2.00;1.23;;;22.70;49.90;;;;;;5034282;28;20441;-89
2024/01/17 00:35:11;;;;;;;2.23;1.50;;;22.70;49.90;;;;;;5034027;28;20448;-88
2024/01/17 00:37:38;;;;;;;2.00;1.50;;;22.70;49.90;;;;;;5034360;28;20450;-88
2024/01/17 00:40:06;;;;;;;2.00;1.47;;;22.70;49.90;;;;;;5034130;28;21055;-90
2024/01/17 00:42:32;;;;;;;1.80;1.17;;;22.70;49.90;;;;;;5034257;28;20825;-88
2024/01/17 00:45:03;;;;;;;2.00;1.20;;;22.70;49.80;;;;;;5034010;28;20478;-89
2024/01/17 00:47:30;;;;;;;2.13;1.53;;;22.70;49.80;;;;;;5034265;28;20434;-88
2024/01/17 00:49:57;;;;;;;2.40;1.70;;;22.70;49.80;;;;;;5034089;28;20442;-88
2024/01/17 00:52:24;;;;;;;1.60;1.20;;;22.70;49.80;;;;;;5034207;28;20446;-87
2024/01/17 00:54:51;;;;;;;2.83;1.80;;;22.70;49.80;;;;;;5034089;28;20442;-89
2024/01/17 00:57:17;;;;;;;2.17;1.43;;;22.70;49.70;;;;;;5034419;28;20437;-89
2024/01/17 00:59:44;;;;;;;1.90;1.23;;;22.70;49.80;;;;;;5034211;28;20530;-89
2024/01/17 01:02:12;;;;;;;2.10;1.60;;;22.70;49.80;;;;;;5034283;28;20507;-89
2024/01/17 01:04:39;;;;;;;2.20;1.50;;;22.70;49.70;;;;;;5034119;28;20568;-89
2024/01/17 01:07:06;;;;;;;2.67;1.40;;;22.70;49.80;;;;;;5033956;28;20494;-89
2024/01/17 01:09:33;;;;;;;2.00;1.40;;;22.80;49.90;;;;;;5034066;28;20554;-89
2024/01/17 01:12:00;;;;;;;2.20;1.50;;;22.70;49.80;;;;;;5033752;28;20482;-88
2024/01/17 01:14:26;;;;;;;2.00;1.37;;;22.70;49.80;;;;;;5037169;28;20435;-89
2024/01/17 01:16:53;;;;;;;2.10;1.50;;;22.70;49.60;;;;;;5058071;28;20452;-90
2024/01/17 01:19:21;;;;;;;2.23;1.27;;;22.70;49.70;;;;;;5062228;28;20430;-90
2024/01/17 01:21:48;;;;;;;1.90;1.47;;;22.70;49.70;;;;;;5038039;28;20782;-90
2024/01/17 01:24:15;;;;;;;2.27;1.60;;;22.70;49.70;;;;;;5052125;28;20426;-89
2024/01/17 01:26:42;;;;;;;2.13;1.37;;;22.70;49.70;;;;;;5062198;28;20500;-91
2024/01/17 01:29:09;;;;;;;3.00;1.47;;;22.70;49.60;;;;;;5062069;28;20456;-89
2024/01/17 01:31:35;;;;;;;2.17;1.43;;;22.70;49.60;;;;;;5051481;28;20542;-89
2024/01/17 01:34:02;;;;;;;2.43;1.47;;;22.70;49.50;;;;;;5039904;28;20442;-89
2024/01/17 01:36:30;;;;;;;1.80;1.40;;;22.70;49.70;;;;;;5039882;28;20448;-88
2024/01/17 01:38:57;;;;;;;1.90;1.30;;;22.70;49.60;;;;;;5038757;28;20473;-88
2024/01/17 01:41:24;;;;;;;2.43;1.30;;;22.70;49.60;;;;;;5037907;28;20460;-89
2024/01/17 01:43:51;;;;;;;2.17;1.50;;;22.70;49.50;;;;;;5038312;28;20532;-88
2024/01/17 01:46:20;;;;;;;2.00;1.53;;;22.80;49.70;;;;;;5037386;28;20485;-88
2024/01/17 01:48:49;;;;;;;3.00;1.30;;;22.70;49.50;;;;;;5037346;28;20454;-88
2024/01/17 01:51:17;;;;;;;2.83;1.57;;;22.70;49.50;;;;;;5037572;28;20447;-88
2024/01/17 01:53:48;;;;;;;2.17;1.37;;;22.70;49.50;;;;;;5037660;28;20444;-88
2024/01/17 01:56:19;;;;;;;2.00;1.50;;;22.70;49.50;;;;;;5037462;28;20457;-88
2024/01/17 01:58:47;;;;;;;2.83;1.70;;;22.70;49.50;;;;;;5037315;28;20446;-89
2024/01/17 02:01:16;;;;;;;2.80;1.60;;;22.70;49.50;;;;;;5037122;28;20921;-89
2024/01/17 02:03:44;;;;;;;2.13;1.30;;;22.70;49.50;;;;;;5037413;28;20540;-88
2024/01/17 02:06:13;;;;;;;2.00;1.40;;;22.70;49.50;;;;;;5037132;28;20492;-88
2024/01/17 02:08:40;;;;;;;1.70;1.33;;;22.70;49.50;;;;;;5036812;28;20792;-88
2024/01/17 02:11:08;;;;;;;2.40;1.40;;;22.70;49.50;;;;;;5036797;28;20473;-88
2024/01/17 02:13:35;;;;;;;2.30;1.67;;;22.70;49.60;;;;;;5036885;28;20890;-88
2024/01/17 02:16:02;;;;;;;1.93;1.40;;;22.60;49.40;;;;;;5036762;28;20434;-88
2024/01/17 02:18:29;;;;;;;2.00;1.40;;;22.60;49.40;;;;;;5037120;28;20446;-89
2024/01/17 02:20:56;;;;;;;2.20;1.57;;;22.60;49.50;;;;;;5036957;28;20460;-88
2024/01/17 02:23:24;;;;;;;1.73;1.30;;;22.70;49.50;;;;;;5037022;28;20474;-89
2024/01/17 02:25:52;;;;;;;2.10;1.63;;;22.60;49.40;;;;;;5036314;28;20572;-89
2024/01/17 02:28:20;;;;;;;2.30;1.40;;;22.70;49.50;;;;;;5036793;28;20438;-89
2024/01/17 02:30:46;;;;;;;2.17;1.30;;;22.70;49.50;;;;;;5036623;28;20446;-89
2024/01/17 02:33:14;;;;;;;1.77;1.20;;;22.60;49.40;;;;;;5036374;28;20452;-89
2024/01/17 02:35:41;;;;;;;1.90;1.13;;;22.60;49.40;;;;;;5036579;28;20438;-89
2024/01/17 02:38:08;;;;;;;1.60;1.10;;;22.70;49.40;;;;;;5036307;28;20450;-90
2024/01/17 02:40:35;;;;;;;3.07;1.70;;;22.70;49.50;;;;;;5036342;28;20470;-89
2024/01/17 02:43:04;;;;;;;2.20;1.30;;;22.70;49.40;;;;;;5036625;28;20446;-89
2024/01/17 02:45:31;;;;;;;2.03;1.10;;;22.70;49.40;;;;;;5036217;28;20969;-89
2024/01/17 02:47:58;;;;;;;2.07;1.33;;;22.70;49.30;;;;;;5036326;28;20824;-89
2024/01/17 02:50:25;;;;;;;1.60;1.03;;;22.70;49.30;;;;;;5036143;28;20450;-90
2024/01/17 02:52:53;;;;;;;1.90;1.63;;;22.70;49.30;;;;;;5036034;28;20533;-90
2024/01/17 02:55:22;;;;;;;1.53;1.10;;;22.70;49.70;;;;;;5036956;28;20473;-89
2024/01/17 02:57:49;;;;;;;1.80;1.30;;;22.60;49.40;;;;;;5036344;28;20440;-90
2024/01/17 03:00:18;;;;;;;1.83;1.33;;;22.60;49.30;;;;;;5036350;28;20909;-89
2024/01/17 03:02:45;;;;;;;2.10;1.43;;;22.70;49.30;;;;;;5035896;28;20457;-90
2024/01/17 03:05:12;;;;;;;2.20;1.40;;;22.70;49.30;;;;;;5035517;28;20857;-88
2024/01/17 03:07:39;;;;;;;1.70;1.27;;;22.70;49.30;;;;;;5035686;28;20456;-90
2024/01/17 03:10:09;;;;;;;2.43;1.40;;;22.70;49.30;;;;;;5035625;28;20462;-89
2024/01/17 03:12:35;;;;;;;1.80;1.27;;;22.70;49.30;;;;;;5035517;28;20525;-89
2024/01/17 03:15:02;;;;;;;2.47;1.40;;;22.70;49.30;;;;;;5035487;28;20822;-89
2024/01/17 03:17:30;;;;;;;2.70;1.53;;;22.70;49.20;;;;;;5035676;28;20448;-88
2024/01/17 03:19:57;;;;;;;2.27;1.33;;;22.70;49.30;;;;;;5035669;28;20449;-89
2024/01/17 03:22:24;;;;;;;2.13;1.30;;;22.70;49.20;;;;;;5035710;28;20438;-90
2024/01/17 03:24:51;;;;;;;1.80;1.40;;;22.70;49.20;;;;;;5035521;28;20449;-89
2024/01/17 03:27:18;;;;;;;2.03;1.43;;;22.70;49.20;;;;;;5035474;28;20438;-89
2024/01/17 03:29:46;;;;;;;4.03;1.57;;;22.70;49.20;;;;;;5035675;28;20537;-89
2024/01/17 03:32:12;;;;;;;1.90;1.30;;;22.70;49.30;;;;;;5035253;28;20442;-89
2024/01/17 03:34:40;;;;;;;1.97;1.23;;;22.60;49.20;;;;;;5035549;28;20430;-89
2024/01/17 03:37:07;;;;;;;1.90;1.33;;;22.70;49.20;;;;;;5035055;28;20449;-87
2024/01/17 03:39:34;;;;;;;1.70;1.27;;;22.70;49.20;;;;;;5017272;28;20438;-89
2024/01/17 03:42:01;;;;;;;2.07;1.40;;;22.70;49.20;;;;;;5034835;28;20466;-89
2024/01/17 03:44:28;;;;;;;2.00;1.47;;;22.70;49.20;;;;;;5034877;28;20533;-89
2024/01/17 03:46:55;;;;;;;2.00;1.37;;;22.70;49.20;;;;;;5034938;28;20490;-89
2024/01/17 03:49:21;;;;;;;2.37;1.40;;;22.70;49.10;;;;;;5035214;28;20624;-89
2024/01/17 03:51:50;;;;;;;1.83;1.50;;;22.70;49.20;;;;;;5035183;28;20463;-89
2024/01/17 03:54:18;;;;;;;1.87;1.27;;;22.70;49.20;;;;;;5035238;28;20442;-88
2024/01/17 03:56:44;;;;;;;2.00;1.30;;;22.70;49.20;;;;;;5034883;28;20453;-88
2024/01/17 03:59:11;;;;;;;1.60;1.17;;;22.70;49.20;;;;;;5034986;28;20447;-89
2024/01/17 04:01:43;;;;;;;1.90;1.20;;;22.70;49.20;;;;;;5034587;28;20447;-89
2024/01/17 04:04:10;;;;;;;1.70;1.23;;;22.70;49.70;;;;;;5035412;28;20430;-88
2024/01/17 04:06:37;;;;;;;2.47;1.30;;;22.70;48.90;;;;;;5034400;28;20482;-88
2024/01/17 04:09:06;;;;;;;2.17;1.30;;;22.60;49.10;;;;;;5034665;28;20446;-87
2024/01/17 04:11:33;;;;;;;2.00;1.63;;;22.60;49.10;;;;;;5034932;28;20823;-88
2024/01/17 04:14:00;;;;;;;2.03;1.40;;;22.60;49.10;;;;;;5035120;28;20438;-87
2024/01/17 04:16:26;;;;;;;1.90;1.30;;;22.60;49.00;;;;;;5034696;28;20538;-88
2024/01/17 04:18:53;;;;;;;1.70;1.20;;;22.60;49.10;;;;;;5034504;28;20454;-88
2024/01/17 04:21:20;;;;;;;1.70;1.30;;;22.70;49.20;;;;;;5034553;28;20446;-88
2024/01/17 04:23:48;;;;;;;1.97;1.33;;;22.60;49.10;;;;;;5034683;28;20921;-88
2024/01/17 04:26:23;;;;;;;2.30;1.60;;;22.60;49.10;;;;;;5058350;28;20533;-88
2024/01/17 04:28:50;;;;;;;2.00;1.23;;;22.60;49.00;;;;;;5058655;28;20470;-89
2024/01/17 04:31:24;;;;;;;2.30;1.50;;;22.60;49.10;;;;;;5037302;28;20447;-88
2024/01/17 04:33:51;;;;;;;1.80;1.50;;;22.70;49.10;;;;;;5034280;28;20426;-86
2024/01/17 04:36:18;;;;;;;2.80;1.50;;;22.60;49.10;;;;;;5034597;28;20451;-87
2024/01/17 04:38:45;;;;;;;2.17;1.20;;;22.60;49.10;;;;;;5034176;28;20442;-88
2024/01/17 04:41:13;;;;;;;1.70;1.20;;;22.60;49.10;;;;;;5034128;28;20450;-88
2024/01/17 04:43:41;;;;;;;1.93;1.50;;;22.60;49.10;;;;;;5034263;28;20448;-87
2024/01/17 04:46:11;;;;;;;1.70;1.33;;;22.60;49.00;;;;;;5033912;28;21067;-88
2024/01/17 04:48:38;;;;;;;2.30;1.37;;;22.60;49.60;;;;;;5033593;28;20439;-87
2024/01/17 04:51:05;;;;;;;1.80;1.20;;;22.70;49.10;;;;;;5033488;28;20949;-88
2024/01/17 04:53:32;;;;;;;2.00;1.33;;;22.60;48.90;;;;;;5033017;28;20461;-88
2024/01/17 04:56:00;;;;;;;1.67;1.17;;;22.60;49.00;;;;;;5033419;28;20463;-87
2024/01/17 04:58:27;;;;;;;1.80;1.37;;;22.70;49.00;;;;;;5033711;28;20857;-88
2024/01/17 05:00:55;;;;;;;1.70;1.30;;;22.70;49.00;;;;;;5033572;28;20450;-87
2024/01/17 05:03:22;;;;;;;2.23;1.57;;;22.70;49.00;;;;;;5033835;28;20439;-87
2024/01/17 05:05:49;;;;;;;1.90;1.40;;;22.70;48.90;;;;;;5033505;28;20481;-88
2024/01/17 05:08:16;;;;;;;2.00;1.40;;;22.70;48.90;;;;;;5033783;28;20456;-88
2024/01/17 05:10:44;;;;;;;1.90;1.30;;;22.70;48.90;;;;;;5033457;28;20559;-88
2024/01/17 05:13:12;;;;;;;1.83;1.10;;;22.80;49.10;;;;;;5033446;28;20508;-87
2024/01/17 05:15:39;;;;;;;1.83;1.30;;;22.70;48.90;;;;;;5033843;28;20446;-87
2024/01/17 05:18:08;;;;;;;1.67;1.20;;;22.70;48.80;;;;;;5034394;28;20445;-88
2024/01/17 05:20:35;;;;;;;1.70;1.40;;;22.70;48.90;;;;;;5033684;28;20454;-87
2024/01/17 05:23:03;;;;;;;2.17;1.20;;;22.70;48.80;;;;;;5033759;28;20443;-87
2024/01/17 05:25:29;;;;;;;1.90;1.30;;;22.80;48.80;;;;;;5033566;28;20453;-88
2024/01/17 05:27:56;;;;;;;2.00;1.50;;;22.80;48.90;;;;;;5033626;28;20438;-85
2024/01/17 05:30:24;;;;;;;2.00;1.50;;;22.80;49.00;;;;;;5033590;28;20472;-89
2024/01/17 05:32:51;;;;;;;1.60;1.10;;;22.90;49.00;;;;;;5033917;28;20496;-88
2024/01/17 05:35:21;;;;;;;1.90;1.17;;;22.80;48.70;;;;;;5033160;28;20442;-86
2024/01/17 05:37:48;;;;;;;3.23;1.40;;;22.80;49.20;;;;;;5033142;28;20446;-88
2024/01/17 05:40:15;;;;;;;1.90;1.50;;;22.80;49.30;;;;;;5033055;28;20468;-89
2024/01/17 05:42:43;;;;;;;2.83;1.43;;;22.80;49.30;;;;;;5033531;28;20451;-88
2024/01/17 05:45:10;;;;;;;7.00;1.47;;;22.80;49.40;;;;;;5033463;28;20449;-87
2024/01/17 05:47:38;;;;;;;2.23;1.30;;;22.80;49.40;;;;;;5033078;28;20912;-89
2024/01/17 05:50:08;;;;;;;2.63;1.33;;;22.80;49.50;;;;;;5032658;28;20454;-86
2024/01/17 05:52:38;;;;;;;1.90;1.50;;;22.80;49.50;;;;;;5033796;28;20800;-87
2024/01/17 05:55:06;;;;;;;2.60;1.20;;;22.80;49.60;;;;;;5033526;28;20449;-88
2024/01/17 05:57:33;;;;;;;6.33;1.47;;;22.80;49.60;;;;;;5033208;28;20446;-86
2024/01/17 05:59:59;;;;;;;2.80;1.20;;;22.80;49.30;;;;;;5021751;28;20441;-88
2024/01/17 06:02:26;;;;;;;1.93;1.33;;;22.80;49.20;;;;;;5023484;28;20427;-87
2024/01/17 06:04:53;;;;;;;1.90;1.43;;;22.90;49.50;;;;;;5024548;28;20429;-88
2024/01/17 06:07:20;;;;;;;2.03;1.40;;;22.80;49.50;;;;;;5025221;28;20991;-89
2024/01/17 06:09:48;;;;;;;2.33;1.33;;;22.80;49.50;;;;;;5037362;28;20530;-86
2024/01/17 06:12:15;;;;;;;2.40;1.60;;;22.80;49.50;;;;;;5048788;28;20529;-88
2024/01/17 06:14:42;;;;;;;2.03;1.30;;;22.80;49.40;;;;;;5048704;28;20470;-87
2024/01/17 06:17:09;;;;;;;2.30;1.50;;;22.80;48.20;;;;;;5035904;28;20514;-86
2024/01/17 06:19:37;;;;;;;1.90;1.30;;;22.80;47.80;;;;;;5033389;28;20470;-87
2024/01/17 06:22:05;;;;;;;1.90;1.30;;;22.70;47.60;;;;;;5042206;28;20943;-87
2024/01/17 06:24:32;;;;;;;3.67;1.53;;;22.70;47.70;;;;;;5022743;28;20486;-85
2024/01/17 06:27:01;;;;;;;3.57;2.00;;;22.60;47.70;;;;;;5019240;28;20487;-88
2024/01/17 06:29:29;;;;;;;2.53;1.40;;;22.60;48.40;;;;;;5038312;28;20461;-89
2024/01/17 06:31:56;;;;;;;2.10;1.40;;;22.60;48.60;;;;;;5025067;28;20538;-87
2024/01/17 06:34:23;;;;;;;2.23;1.40;;;22.60;48.60;;;;;;5017959;28;20457;-89
2024/01/17 06:36:49;;;;;;;2.77;1.57;;;22.70;48.50;;;;;;5017592;28;20439;-89
2024/01/17 06:39:17;;;;;;;2.10;1.40;;;22.70;49.40;;;;;;5016885;28;20435;-88
2024/01/17 06:41:44;;;;;;;2.57;1.60;;;22.70;48.70;;;;;;5017673;28;20447;-89
2024/01/17 06:44:14;;;;;;;2.20;1.33;;;22.70;48.60;;;;;;5019247;28;20454;-89
2024/01/17 06:46:41;;;;;;;2.23;1.43;;;22.70;48.70;;;;;;5016793;28;20981;-89
2024/01/17 06:49:08;;;;;;;2.67;1.40;;;22.80;48.80;;;;;;5016477;28;20470;-89
2024/01/17 06:51:35;;;;;;;3.20;1.63;;;22.80;48.90;;;;;;5016329;28;20455;-89
2024/01/17 06:54:01;;;;;;;2.93;1.70;;;22.80;48.80;;;;;;5016256;28;20447;-89
2024/01/17 06:56:28;;;;;;;3.20;2.00;;;22.80;48.80;;;;;;5016039;28;20534;-89
2024/01/17 06:58:55;;;;;;;2.07;1.30;;;22.80;48.90;;;;;;5016041;28;20447;-89
2024/01/17 07:01:24;;;;;;;2.50;1.57;;;22.70;48.80;;;;;;5016142;28;20478;-89
2024/01/17 07:03:50;;;;;;;2.40;1.63;;;22.80;48.90;;;;;;5016121;28;20444;-89
2024/01/17 07:06:18;;;;;;;2.43;1.57;;;22.80;48.80;;;;;;5016075;28;20510;-89
2024/01/17 07:08:45;;;;;;;2.47;1.30;;;22.80;48.80;;;;;;5017850;28;20447;-88
2024/01/17 07:11:12;;;;;;;2.70;1.83;;;22.80;48.80;;;;;;5015799;28;20470;-89
2024/01/17 07:13:39;;;;;;;2.63;1.70;;;22.80;48.80;;;;;;5015710;28;20471;-89
2024/01/17 07:16:06;;;;;;;2.20;1.60;;;22.80;48.80;;;;;;5014785;28;20443;-90
2024/01/17 07:18:35;;;;;;;2.33;1.70;;;22.80;48.80;;;;;;5015545;28;20443;-89
2024/01/17 07:21:06;;;;;;;3.87;1.80;;;22.80;48.80;;;;;;5015444;28;20449;-89
2024/01/17 07:23:33;;;;;;;3.00;1.60;;;22.80;48.70;;;;;;5015965;28;20427;-89
2024/01/17 07:26:00;;;;;;;3.60;1.93;;;22.80;48.60;;;;;;5016662;28;20450;-89
2024/01/17 07:28:27;;;;;;;2.73;1.80;;;22.90;48.00;;;;;;5016916;28;20542;-88
2024/01/17 07:30:53;;;;;;;7.60;2.00;;;22.90;48.40;;;;;;5016171;28;20473;-88
2024/01/17 07:33:20;;;;;;;5.67;2.43;;;22.90;49.10;;;;;;5015196;28;20930;-88
2024/01/17 07:35:48;;;;;;;3.30;2.53;;;22.90;49.60;;;;;;5015500;28;20458;-88
2024/01/17 07:38:15;;;;;;;2.63;1.90;;;22.90;49.70;;;;;;5029642;28;20502;-89
2024/01/17 07:40:43;;;;;;;2.70;2.07;;;22.90;49.70;;;;;;5038182;28;20455;-89
2024/01/17 07:43:09;;;;;;;3.07;1.97;;;22.90;49.70;;;;;;5029483;28;20474;-88
2024/01/17 07:45:36;;;;;;;3.20;1.90;;;22.90;49.70;;;;;;5014945;28;20948;-89
2024/01/17 07:48:03;;;;;;;3.47;2.03;;;22.90;49.80;;;;;;5014701;28;20494;-88
2024/01/17 07:50:30;;;;;;;2.77;2.10;;;22.90;49.70;;;;;;5014501;28;20447;-92
2024/01/17 07:52:58;;;;;;;3.13;2.20;;;23.00;49.80;;;;;;5015366;28;20551;-90
2024/01/17 07:55:25;;;;;;;3.77;2.20;;;22.90;49.80;;;;;;5015041;28;20814;-89
2024/01/17 07:57:52;;;;;;;3.70;2.80;;;22.90;49.80;;;;;;5014943;28;20474;-89
2024/01/17 08:00:19;;;;;;;3.07;2.40;;;22.90;49.80;;;;;;5019684;28;20519;-87
2024/01/17 08:02:46;;;;;;;2.37;2.00;;;22.90;49.80;;;;;;5035424;28;20442;-93
2024/01/17 08:05:13;;;;;;;2.00;1.60;;;22.90;49.90;;;;;;5035473;28;20441;-94
2024/01/17 08:07:40;;;;;;;2.60;1.87;;;22.90;49.80;;;;;;5035494;28;20492;-93
2024/01/17 08:10:08;;;;;;;6.17;1.87;;;22.90;50.40;;;;;;5036288;28;20466;-91
2024/01/17 08:12:35;;;;;;;2.07;1.57;;;22.90;49.70;;;;;;5036166;28;20486;-96
2024/01/17 08:15:02;;;;;;;3.40;1.90;;;22.90;49.70;;;;;;5037530;28;20458;-89
2024/01/17 08:17:29;;;;;;;3.10;1.80;;;22.90;49.70;;;;;;5036369;28;20465;-92
2024/01/17 08:19:56;;;;;;;2.70;1.90;;;22.90;49.70;;;;;;5016714;28;20453;-91
2024/01/17 08:22:23;;;;;;;2.40;1.97;;;22.90;49.60;;;;;;5015226;28;20526;-89
2024/01/17 08:24:51;;;;;;;2.73;1.90;;;23.00;49.60;;;;;;5014388;28;20475;-90
2024/01/17 08:27:19;;;;;;;2.83;2.00;;;22.90;49.50;;;;;;5014209;28;21075;-90
2024/01/17 08:29:46;;;;;;;4.70;2.20;;;22.90;49.50;;;;;;5015684;28;20479;-95
2024/01/17 08:32:13;;;;;;;3.40;2.40;;;22.90;49.40;;;;;;5015698;28;20479;-90
2024/01/17 08:34:40;;;;;;;4.80;2.40;;;22.90;49.40;;;;;;5015614;28;20560;-92
2024/01/17 08:37:06;;;;;;;2.03;1.70;;;22.90;49.30;;;;;;5015627;28;20446;-88
2024/01/17 08:39:43;;;;;;;3.10;2.20;;;23.00;49.40;;;;;;5014714;28;20471;-94
2024/01/17 08:42:10;;;;;;;2.37;2.07;;;22.90;49.40;;;;;;5016334;28;20438;-95
2024/01/17 08:44:38;;;;;;;2.27;1.70;;;23.00;49.40;;;;;;5014538;28;20443;-89
2024/01/17 08:47:07;;;;;;;2.93;2.00;;;22.90;49.20;;;;;;5014118;28;20978;-88
2024/01/17 08:49:34;;;;;;;2.93;1.90;;;22.90;49.20;;;;;;5014267;28;20447;-88
2024/01/17 08:52:01;;;;;;;2.50;1.80;;;22.90;49.20;;;;;;5014037;28;20550;-88
2024/01/17 08:54:29;;;;;;;3.50;1.90;;;22.90;49.20;;;;;;5014447;28;20930;-87
2024/01/17 08:56:56;;;;;;;3.73;1.77;;;22.90;49.20;;;;;;5014080;28;20534;-93
2024/01/17 08:59:23;;;;;;;3.20;2.00;;;23.00;49.10;;;;;;5014575;28;20443;-84
2024/01/17 09:01:52;;;;;;;2.60;2.10;;;23.10;49.30;;;;;;5035018;28;20438;-96
2024/01/17 09:04:19;;;;;;;2.73;2.23;;;23.00;49.20;;;;;;5036762;28;20520;-95
2024/01/17 09:06:46;;;;;;;3.20;1.77;;;23.00;49.20;;;;;;5035354;28;20442;-86
2024/01/17 09:09:12;;;;;;;3.73;1.80;;;23.00;49.10;;;;;;5034361;28;20450;-92
2024/01/17 09:11:39;;;;;;;2.30;1.70;;;23.10;49.20;;;;;;5033462;28;20977;-89
2024/01/17 09:14:06;;;;;;;2.93;2.17;;;23.00;49.10;;;;;;5033349;28;20918;-84
2024/01/17 09:16:33;;;;;;;3.53;2.30;;;23.00;49.10;;;;;;5020892;28;20443;-92
2024/01/17 09:19:02;;;;;;;4.50;1.97;;;23.00;49.10;;;;;;5014826;28;20820;-88
2024/01/17 09:21:30;;;;;;;3.00;1.60;;;23.00;49.10;;;;;;5014275;28;20447;-86
2024/01/17 09:23:57;;;;;;;3.00;1.93;;;23.00;49.00;;;;;;5021136;28;20521;-91
2024/01/17 09:26:26;;;;;;;2.10;1.60;;;23.00;49.00;;;;;;5053857;23;20462;-88
2024/01/17 09:31:28;;;;;;;2.40;2.07;;;23.00;49.00;;;;;;4827804;26;20500;-92
2024/01/17 09:33:56;;;;;;;3.00;2.30;;;23.00;49.00;;;;;;5039185;28;20438;-95
2024/01/17 09:36:25;;;;;;;2.30;1.80;;;22.90;49.00;;;;;;5034934;28;20446;-96
2024/01/17 09:38:53;;;;;;;4.67;2.30;;;22.90;48.90;;;;;;5037524;28;20446;-91
2024/01/17 09:41:22;;;;;;;1.70;1.47;;;23.00;49.00;;;;;;5032479;28;20509;-86
2024/01/17 09:43:53;;;;;;;2.13;1.40;;;22.90;48.90;;;;;;5052581;23;20485;-88
2024/01/17 09:46:21;;;;;;;3.00;1.67;;;22.90;48.90;;;;;;4988078;28;20461;-95
2024/01/17 09:48:48;;;;;;;3.00;1.93;;;22.90;49.40;;;;;;4983147;28;20492;-86
2024/01/17 09:51:16;;;;;;;3.67;2.90;;;22.90;48.90;;;;;;4980517;28;20535;-95
2024/01/17 09:53:46;;;;;;;4.53;2.20;;;22.90;48.80;;;;;;4979184;28;20449;-88
2024/01/17 09:56:14;;;;;;;2.87;1.60;;;22.90;49.00;;;;;;4980283;28;20456;-95
2024/01/17 09:58:44;;;;;;;4.03;2.33;;;22.90;48.80;;;;;;4982858;28;20467;-92
2024/01/17 10:01:14;;;;;;;2.27;1.77;;;22.90;48.90;;;;;;4980800;28;20451;-94
2024/01/17 10:03:49;;;;;;;3.00;2.10;;;23.00;48.90;;;;;;4985602;28;20473;-87
2024/01/17 10:06:17;;;;;;;2.00;1.43;;;23.00;48.90;;;;;;4972681;28;20480;-88
2024/01/17 10:08:47;;;;;;;2.60;1.90;;;23.00;48.80;;;;;;4997481;28;21001;-88
2024/01/17 10:11:14;;;;;;;2.30;1.80;;;23.00;48.90;;;;;;4997438;28;20469;-87
2024/01/17 10:13:41;;;;;;;2.40;2.03;;;22.90;48.80;;;;;;4997168;28;20458;-89
2024/01/17 10:16:09;;;;;;;3.73;1.70;;;23.00;48.70;;;;;;4997382;28;20443;-87
2024/01/17 10:18:36;;;;;;;2.60;1.63;;;23.00;48.80;;;;;;4997184;28;20803;-87
2024/01/17 10:21:04;;;;;;;2.00;1.40;;;23.00;48.80;;;;;;4997332;28;20451;-87
2024/01/17 10:23:31;;;;;;;2.60;1.80;;;23.00;48.80;;;;;;4997508;28;20831;-87
2024/01/17 10:25:59;;;;;;;2.97;2.17;;;23.00;48.80;;;;;;4997361;28;20443;-87
2024/01/17 10:28:26;;;;;;;2.90;1.80;;;23.10;48.90;;;;;;4997355;28;20570;-87
2024/01/17 10:30:53;;;;;;;3.03;2.10;;;23.00;48.80;;;;;;4997007;28;20455;-87
2024/01/17 10:33:20;;;;;;;2.77;2.07;;;23.00;48.80;;;;;;4997283;28;20562;-87
2024/01/17 10:35:49;;;;;;;2.40;1.60;;;23.00;48.90;;;;;;4996652;28;20440;-87
2024/01/17 10:38:16;;;;;;;3.70;1.80;;;23.00;48.80;;;;;;4996803;28;20869;-87
2024/01/17 10:40:44;;;;;;;2.80;1.70;;;23.00;48.80;;;;;;4996554;28;21034;-87
2024/01/17 10:43:13;;;;;;;2.83;1.90;;;23.00;48.80;;;;;;4996357;28;20453;-87
2024/01/17 10:45:42;;;;;;;2.50;1.97;;;23.00;48.80;;;;;;4995846;28;21285;-87
2024/01/17 10:48:09;;;;;;;2.37;1.53;;;23.00;48.80;;;;;;4996197;28;21002;-87
2024/01/17 10:50:36;;;;;;;2.40;1.77;;;23.00;48.80;;;;;;4997215;28;20483;-87
2024/01/17 10:53:06;;;;;;;2.87;1.70;;;23.00;48.80;;;;;;5017262;28;20487;-88
2024/01/17 10:55:35;;;;;;;2.90;1.93;;;23.00;48.70;;;;;;5019849;28;20444;-87
2024/01/17 10:58:09;;;;;;;3.17;2.37;;;23.00;49.40;;;;;;5019448;28;20420;-88
2024/01/17 11:00:40;;;;;;;2.33;1.60;;;23.10;48.90;;;;;;4997343;28;20440;-86
2024/01/17 11:03:10;;;;;;;2.20;1.67;;;23.00;48.90;;;;;;4996574;28;20940;-87
2024/01/17 11:05:46;;;;;;;3.50;1.83;;;23.00;48.80;;;;;;4996544;28;20447;-88
2024/01/17 11:08:15;;;;;;;2.83;1.77;;;23.00;48.80;;;;;;4996878;28;20478;-87
2024/01/17 11:10:45;;;;;;;1.97;1.50;;;23.00;48.80;;;;;;4996759;28;20464;-87
2024/01/17 11:13:14;;;;;;;2.27;1.70;;;23.00;48.80;;;;;;4996169;28;20448;-87
2024/01/17 11:15:43;;;;;;;5.10;1.83;;;23.00;48.80;;;;;;4995920;28;20448;-87
2024/01/17 11:18:10;;;;;;;3.90;2.00;;;23.00;48.70;;;;;;4996352;28;20448;-87
2024/01/17 11:20:40;;;;;;;2.50;1.80;;;23.00;48.80;;;;;;4995932;28;20441;-87
2024/01/17 11:23:08;;;;;;;2.07;1.67;;;23.00;48.80;;;;;;4996197;28;20520;-87
2024/01/17 11:25:42;;;;;;;2.20;1.80;;;23.00;48.80;;;;;;4995961;28;20440;-87
2024/01/17 11:28:19;;;;;;;2.00;1.50;;;23.00;48.70;;;;;;4996077;28;20587;-88
2024/01/17 11:31:09;;;;;;;2.27;1.73;;;23.00;48.70;;;;;;4996063;28;20452;-87
2024/01/17 11:33:37;;;;;;;2.10;1.70;;;23.00;48.70;;;;;;4995931;28;20470;-87
2024/01/17 11:36:05;;;;;;;2.17;1.87;;;23.00;48.70;;;;;;4995791;28;20448;-87
2024/01/17 11:38:33;;;;;;;2.70;1.87;;;23.00;48.80;;;;;;4995991;28;20447;-87
2024/01/17 11:41:05;;;;;;;2.43;1.67;;;23.00;48.70;;;;;;4995679;28;20451;-87
2024/01/17 11:43:35;;;;;;;2.67;1.57;;;23.10;48.80;;;;;;4996093;28;20436;-87
2024/01/17 11:46:05;;;;;;;2.43;2.20;;;23.00;48.70;;;;;;4995296;28;20480;-87
2024/01/17 11:48:33;;;;;;;5.10;1.80;;;23.00;48.70;;;;;;4995532;28;21021;-87
2024/01/17 11:51:04;;;;;;;2.63;2.03;;;23.00;48.70;;;;;;4995204;28;20444;-88
2024/01/17 11:53:32;;;;;;;2.70;2.20;;;23.00;48.60;;;;;;4995629;28;20479;-87
2024/01/17 11:56:01;;;;;;;3.83;1.90;;;23.00;48.70;;;;;;4995380;28;20448;-87
2024/01/17 11:58:42;;;;;;;2.83;1.83;;;23.00;48.60;;;;;;4995539;28;20484;-87
2024/01/17 12:01:12;;;;;;;2.73;2.10;;;23.00;48.60;;;;;;4995056;28;20479;-87
2024/01/17 12:03:39;;;;;;;2.40;2.00;;;23.00;48.60;;;;;;4995654;28;20444;-87
2024/01/17 12:06:08;;;;;;;2.77;1.90;;;23.10;48.70;;;;;;4990138;28;20963;-87
2024/01/17 12:08:36;;;;;;;3.23;2.00;;;23.00;48.70;;;;;;4975693;28;20991;-87
2024/01/17 12:11:04;;;;;;;2.00;1.50;;;23.00;48.70;;;;;;4975620;28;20444;-86
2024/01/17 12:13:31;;;;;;;2.67;1.70;;;23.00;48.60;;;;;;4975234;28;20962;-87
2024/01/17 12:15:58;;;;;;;6.23;2.00;;;23.00;48.70;;;;;;4972624;28;20551;-87
2024/01/17 12:18:28;;;;;;;2.70;1.80;;;23.00;48.60;;;;;;4990261;28;20472;-88
2024/01/17 12:20:55;;;;;;;3.03;1.90;;;23.00;48.50;;;;;;4985111;28;20948;-88
2024/01/17 12:23:24;;;;;;;2.00;1.70;;;23.00;48.50;;;;;;4969428;28;20517;-87
2024/01/17 12:25:52;;;;;;;2.07;1.70;;;23.10;48.60;;;;;;4968741;28;20449;-88
2024/01/17 12:28:20;;;;;;;2.10;1.60;;;23.10;48.60;;;;;;4974871;28;20971;-89
2024/01/17 12:31:00;;;;;;;2.50;1.97;;;23.10;48.70;;;;;;4975582;28;20477;-88
2024/01/17 12:33:30;;;;;;;2.40;2.20;;;23.10;48.70;;;;;;4966210;28;20941;-88
2024/01/17 12:36:00;;;;;;;1.97;1.57;;;23.10;48.70;;;;;;4955713;29;20925;-88
2024/01/17 12:38:27;;;;;;;2.23;1.83;;;23.10;48.60;;;;;;4956118;29;20461;-87
2024/01/17 12:40:55;;;;;;;2.30;1.80;;;23.10;49.30;;;;;;4955805;28;20882;-87
2024/01/17 12:43:25;;;;;;;2.17;1.77;;;23.10;48.70;;;;;;4969433;28;20453;-87
2024/01/17 12:45:53;;;;;;;3.00;2.30;;;23.10;48.60;;;;;;4974316;28;20496;-87
2024/01/17 12:48:20;;;;;;;2.20;1.67;;;23.10;48.70;;;;;;4962430;28;20827;-87
2024/01/17 12:50:51;;;;;;;2.83;2.53;;;23.10;48.60;;;;;;4974900;28;20937;-86
2024/01/17 12:53:19;;;;;;;2.97;2.07;;;23.10;48.50;;;;;;4975065;28;20499;-86